Terminal Aerodrome Forecast
Issued by NWS

Home | Current Version | Previous Version | Text Only | Print | Product List | Glossary On
Versions: 1 2 3 4 5 6 7 8 9 10 11 12 13 14 15 16 17 18 19 20 21 22 23 24 25 26 27 28 29 30 31 32
000
FTUS45 KGJT 231120
TAFCNY
TAF
KCNY 231120Z 2312/2412 14009KT P6SM FEW150
     FM232100 16008G16KT P6SM FEW120 SCT200
     FM240000 13010G20KT P6SM VCTS SCT120CB BKN200
      TEMPO 2400/2404 VRB20G30KT
     FM240400 13008KT P6SM VCSH SCT100 BKN150=

USA.gov is the U.S. government's official web portal to all federal, state and local government web resources and services.